sensor_id;sensor_type;location;lat;lon;timestamp;temperature;humidity
14985;DHT22;7588;62.368;25.902;2023-04-24T00:00:25;2.00;99.90
14985;DHT22;7588;62.368;25.902;2023-04-24T00:02:51;2.00;99.90
14985;DHT22;7588;62.368;25.902;2023-04-24T00:05:17;2.00;99.90
14985;DHT22;7588;62.368;25.902;2023-04-24T00:07:44;2.00;99.90
14985;DHT22;7588;62.368;25.902;2023-04-24T00:10:11;2.00;99.90
14985;DHT22;7588;62.368;25.902;2023-04-24T00:12:37;2.00;99.90
14985;DHT22;7588;62.368;25.902;2023-04-24T00:15:03;2.10;99.90
14985;DHT22;7588;62.368;25.902;2023-04-24T00:17:29;2.10;99.90
14985;DHT22;7588;62.368;25.902;2023-04-24T00:19:54;2.10;99.90
14985;DHT22;7588;62.368;25.902;2023-04-24T00:22:28;2.00;99.90
14985;DHT22;7588;62.368;25.902;2023-04-24T00:24:54;2.00;99.90
14985;DHT22;7588;62.368;25.902;2023-04-24T00:27:20;2.00;99.90
14985;DHT22;7588;62.368;25.902;2023-04-24T00:29:46;2.00;99.90
14985;DHT22;7588;62.368;25.902;2023-04-24T00:32:12;2.00;99.90
14985;DHT22;7588;62.368;25.902;2023-04-24T00:34:38;2.00;99.90
14985;DHT22;7588;62.368;25.902;2023-04-24T00:37:04;2.00;99.90
14985;DHT22;7588;62.368;25.902;2023-04-24T00:39:30;2.00;99.90
14985;DHT22;7588;62.368;25.902;2023-04-24T00:41:56;2.00;99.90
14985;DHT22;7588;62.368;25.902;2023-04-24T00:44:23;2.00;99.90
14985;DHT22;7588;62.368;25.902;2023-04-24T00:46:49;2.00;99.90
14985;DHT22;7588;62.368;25.902;2023-04-24T00:49:18;2.00;99.90
14985;DHT22;7588;62.368;25.902;2023-04-24T00:51:44;2.00;99.90
14985;DHT22;7588;62.368;25.902;2023-04-24T00:54:11;2.00;99.90
14985;DHT22;7588;62.368;25.902;2023-04-24T00:56:37;2.20;99.90
14985;DHT22;7588;62.368;25.902;2023-04-24T00:59:03;2.20;99.90
14985;DHT22;7588;62.368;25.902;2023-04-24T01:01:30;2.20;99.90
14985;DHT22;7588;62.368;25.902;2023-04-24T01:03:57;2.20;99.90
14985;DHT22;7588;62.368;25.902;2023-04-24T01:06:23;2.20;99.90
14985;DHT22;7588;62.368;25.902;2023-04-24T01:08:52;2.40;99.90
14985;DHT22;7588;62.368;25.902;2023-04-24T01:11:19;2.40;99.90
14985;DHT22;7588;62.368;25.902;2023-04-24T01:13:46;2.40;99.90
14985;DHT22;7588;62.368;25.902;2023-04-24T01:16:13;2.40;99.90
14985;DHT22;7588;62.368;25.902;2023-04-24T01:18:38;2.40;99.90
14985;DHT22;7588;62.368;25.902;2023-04-24T01:21:04;2.40;99.90
14985;DHT22;7588;62.368;25.902;2023-04-24T01:23:31;2.40;99.90
14985;DHT22;7588;62.368;25.902;2023-04-24T01:25:56;2.50;99.90
14985;DHT22;7588;62.368;25.902;2023-04-24T01:28:22;2.50;99.90
14985;DHT22;7588;62.368;25.902;2023-04-24T01:30:48;2.50;99.90
14985;DHT22;7588;62.368;25.902;2023-04-24T01:33:14;2.50;99.90
14985;DHT22;7588;62.368;25.902;2023-04-24T01:35:40;2.50;99.90
14985;DHT22;7588;62.368;25.902;2023-04-24T01:38:06;2.50;99.90
14985;DHT22;7588;62.368;25.902;2023-04-24T01:40:32;2.60;99.90
14985;DHT22;7588;62.368;25.902;2023-04-24T01:42:58;2.50;99.90
14985;DHT22;7588;62.368;25.902;2023-04-24T01:45:24;2.50;99.90
14985;DHT22;7588;62.368;25.902;2023-04-24T01:47:50;2.60;99.90
14985;DHT22;7588;62.368;25.902;2023-04-24T01:50:17;2.50;99.90
14985;DHT22;7588;62.368;25.902;2023-04-24T01:52:43;2.50;99.90
14985;DHT22;7588;62.368;25.902;2023-04-24T01:55:09;2.60;99.90
14985;DHT22;7588;62.368;25.902;2023-04-24T01:57:35;2.60;99.90
14985;DHT22;7588;62.368;25.902;2023-04-24T02:00:02;2.60;99.90
14985;DHT22;7588;62.368;25.902;2023-04-24T02:02:30;2.60;99.90
14985;DHT22;7588;62.368;25.902;2023-04-24T02:04:56;2.50;99.90
14985;DHT22;7588;62.368;25.902;2023-04-24T02:07:22;2.60;99.90
14985;DHT22;7588;62.368;25.902;2023-04-24T02:09:48;2.60;99.90
14985;DHT22;7588;62.368;25.902;2023-04-24T02:12:17;2.50;99.90
14985;DHT22;7588;62.368;25.902;2023-04-24T02:14:43;2.50;99.90
14985;DHT22;7588;62.368;25.902;2023-04-24T02:17:09;2.50;99.90
14985;DHT22;7588;62.368;25.902;2023-04-24T02:19:37;2.50;99.90
14985;DHT22;7588;62.368;25.902;2023-04-24T02:22:03;2.50;99.90
14985;DHT22;7588;62.368;25.902;2023-04-24T02:24:28;2.40;99.90
14985;DHT22;7588;62.368;25.902;2023-04-24T02:26:54;2.50;99.90
14985;DHT22;7588;62.368;25.902;2023-04-24T02:29:20;2.50;99.90
14985;DHT22;7588;62.368;25.902;2023-04-24T02:31:45;2.50;99.90
14985;DHT22;7588;62.368;25.902;2023-04-24T02:34:11;2.50;99.90
14985;DHT22;7588;62.368;25.902;2023-04-24T02:36:37;2.50;99.90
14985;DHT22;7588;62.368;25.902;2023-04-24T02:39:02;2.60;99.90
14985;DHT22;7588;62.368;25.902;2023-04-24T02:41:29;2.50;99.90
14985;DHT22;7588;62.368;25.902;2023-04-24T02:43:57;2.50;99.90
14985;DHT22;7588;62.368;25.902;2023-04-24T02:46:23;2.50;99.90
14985;DHT22;7588;62.368;25.902;2023-04-24T02:48:49;2.60;99.90
14985;DHT22;7588;62.368;25.902;2023-04-24T02:51:15;2.60;99.90
14985;DHT22;7588;62.368;25.902;2023-04-24T02:53:40;2.60;99.90
14985;DHT22;7588;62.368;25.902;2023-04-24T02:56:06;2.60;99.90
14985;DHT22;7588;62.368;25.902;2023-04-24T02:58:32;2.60;99.90
14985;DHT22;7588;62.368;25.902;2023-04-24T03:00:58;2.70;99.90
14985;DHT22;7588;62.368;25.902;2023-04-24T03:03:23;2.70;99.90
14985;DHT22;7588;62.368;25.902;2023-04-24T03:05:49;2.60;99.90
14985;DHT22;7588;62.368;25.902;2023-04-24T03:08:15;2.60;99.90
14985;DHT22;7588;62.368;25.902;2023-04-24T03:10:41;2.60;99.90
14985;DHT22;7588;62.368;25.902;2023-04-24T03:13:07;2.60;99.90
14985;DHT22;7588;62.368;25.902;2023-04-24T03:15:33;2.60;99.90
14985;DHT22;7588;62.368;25.902;2023-04-24T03:17:58;2.70;99.90
14985;DHT22;7588;62.368;25.902;2023-04-24T03:20:26;2.70;99.90
14985;DHT22;7588;62.368;25.902;2023-04-24T03:22:51;2.70;99.90
14985;DHT22;7588;62.368;25.902;2023-04-24T03:25:17;2.80;99.90
14985;DHT22;7588;62.368;25.902;2023-04-24T03:27:43;2.70;99.90
14985;DHT22;7588;62.368;25.902;2023-04-24T03:30:09;2.80;99.90
14985;DHT22;7588;62.368;25.902;2023-04-24T03:32:35;2.80;99.90
14985;DHT22;7588;62.368;25.902;2023-04-24T03:35:01;2.80;99.90
14985;DHT22;7588;62.368;25.902;2023-04-24T03:37:27;2.80;99.90
14985;DHT22;7588;62.368;25.902;2023-04-24T03:39:53;2.80;99.90
14985;DHT22;7588;62.368;25.902;2023-04-24T03:42:18;2.90;99.90
14985;DHT22;7588;62.368;25.902;2023-04-24T03:44:44;2.90;99.90
14985;DHT22;7588;62.368;25.902;2023-04-24T03:47:10;2.90;99.90
14985;DHT22;7588;62.368;25.902;2023-04-24T03:49:35;3.00;99.90
14985;DHT22;7588;62.368;25.902;2023-04-24T03:52:01;3.00;99.90
14985;DHT22;7588;62.368;25.902;2023-04-24T03:54:27;3.00;99.90
14985;DHT22;7588;62.368;25.902;2023-04-24T03:56:53;3.00;99.90
14985;DHT22;7588;62.368;25.902;2023-04-24T03:59:19;3.10;99.90
14985;DHT22;7588;62.368;25.902;2023-04-24T04:01:44;3.10;99.90
14985;DHT22;7588;62.368;25.902;2023-04-24T04:04:11;3.20;99.90
14985;DHT22;7588;62.368;25.902;2023-04-24T04:06:37;3.20;99.90
14985;DHT22;7588;62.368;25.902;2023-04-24T04:09:02;3.30;99.90
14985;DHT22;7588;62.368;25.902;2023-04-24T04:11:28;3.40;99.90
14985;DHT22;7588;62.368;25.902;2023-04-24T04:13:54;3.50;99.90
14985;DHT22;7588;62.368;25.902;2023-04-24T04:16:20;3.50;99.90
14985;DHT22;7588;62.368;25.902;2023-04-24T04:18:46;3.50;99.90
14985;DHT22;7588;62.368;25.902;2023-04-24T04:21:11;3.50;99.90
14985;DHT22;7588;62.368;25.902;2023-04-24T04:23:37;3.60;99.90
14985;DHT22;7588;62.368;25.902;2023-04-24T04:26:03;3.60;99.90
14985;DHT22;7588;62.368;25.902;2023-04-24T04:28:29;3.60;99.90
14985;DHT22;7588;62.368;25.902;2023-04-24T04:30:58;3.70;99.90
14985;DHT22;7588;62.368;25.902;2023-04-24T04:33:24;3.70;99.90
14985;DHT22;7588;62.368;25.902;2023-04-24T04:35:51;3.70;99.90
14985;DHT22;7588;62.368;25.902;2023-04-24T04:38:22;3.80;99.90
14985;DHT22;7588;62.368;25.902;2023-04-24T04:40:48;3.80;99.90
14985;DHT22;7588;62.368;25.902;2023-04-24T04:43:14;3.80;99.90
14985;DHT22;7588;62.368;25.902;2023-04-24T04:45:40;3.90;99.90
14985;DHT22;7588;62.368;25.902;2023-04-24T04:48:08;3.90;99.90
14985;DHT22;7588;62.368;25.902;2023-04-24T04:50:38;3.90;99.90
14985;DHT22;7588;62.368;25.902;2023-04-24T04:53:04;4.00;99.90
14985;DHT22;7588;62.368;25.902;2023-04-24T04:55:29;4.00;99.90
14985;DHT22;7588;62.368;25.902;2023-04-24T04:57:55;4.00;99.90
14985;DHT22;7588;62.368;25.902;2023-04-24T05:00:21;4.10;99.90
14985;DHT22;7588;62.368;25.902;2023-04-24T05:02:49;4.20;99.90
14985;DHT22;7588;62.368;25.902;2023-04-24T05:05:15;4.40;99.90
14985;DHT22;7588;62.368;25.902;2023-04-24T05:07:42;4.50;99.90
14985;DHT22;7588;62.368;25.902;2023-04-24T05:10:08;4.60;99.90
14985;DHT22;7588;62.368;25.902;2023-04-24T05:12:34;4.80;99.90
14985;DHT22;7588;62.368;25.902;2023-04-24T05:15:00;4.90;99.90
14985;DHT22;7588;62.368;25.902;2023-04-24T05:17:25;5.10;99.90
14985;DHT22;7588;62.368;25.902;2023-04-24T05:19:51;5.30;99.90
14985;DHT22;7588;62.368;25.902;2023-04-24T05:22:17;5.60;99.90
14985;DHT22;7588;62.368;25.902;2023-04-24T05:24:44;5.80;99.90
14985;DHT22;7588;62.368;25.902;2023-04-24T05:27:10;6.00;99.90
14985;DHT22;7588;62.368;25.902;2023-04-24T05:29:36;6.30;99.90
14985;DHT22;7588;62.368;25.902;2023-04-24T05:32:01;6.60;99.90
14985;DHT22;7588;62.368;25.902;2023-04-24T05:34:27;6.90;99.90
14985;DHT22;7588;62.368;25.902;2023-04-24T05:36:52;7.20;99.90
14985;DHT22;7588;62.368;25.902;2023-04-24T05:39:18;7.50;99.90
14985;DHT22;7588;62.368;25.902;2023-04-24T05:41:45;7.70;99.90
14985;DHT22;7588;62.368;25.902;2023-04-24T05:44:10;7.90;99.90
14985;DHT22;7588;62.368;25.902;2023-04-24T05:46:36;8.00;99.90
14985;DHT22;7588;62.368;25.902;2023-04-24T05:49:02;8.10;99.90
14985;DHT22;7588;62.368;25.902;2023-04-24T05:51:28;8.30;99.90
14985;DHT22;7588;62.368;25.902;2023-04-24T05:53:54;8.30;99.90
14985;DHT22;7588;62.368;25.902;2023-04-24T05:56:20;8.40;99.90
14985;DHT22;7588;62.368;25.902;2023-04-24T05:58:46;8.40;99.90
14985;DHT22;7588;62.368;25.902;2023-04-24T06:01:12;8.40;99.90
14985;DHT22;7588;62.368;25.902;2023-04-24T06:03:38;8.50;99.90
14985;DHT22;7588;62.368;25.902;2023-04-24T06:06:06;8.40;99.90
14985;DHT22;7588;62.368;25.902;2023-04-24T06:08:32;8.50;99.90
14985;DHT22;7588;62.368;25.902;2023-04-24T06:10:58;8.50;99.90
14985;DHT22;7588;62.368;25.902;2023-04-24T06:13:24;8.50;99.90
14985;DHT22;7588;62.368;25.902;2023-04-24T06:15:49;8.50;99.90
14985;DHT22;7588;62.368;25.902;2023-04-24T06:18:18;8.50;99.90
14985;DHT22;7588;62.368;25.902;2023-04-24T06:20:45;8.60;99.90
14985;DHT22;7588;62.368;25.902;2023-04-24T06:23:11;8.60;99.90
14985;DHT22;7588;62.368;25.902;2023-04-24T06:25:37;8.50;99.90
14985;DHT22;7588;62.368;25.902;2023-04-24T06:28:03;8.50;99.90
14985;DHT22;7588;62.368;25.902;2023-04-24T06:30:29;8.40;99.90
14985;DHT22;7588;62.368;25.902;2023-04-24T06:32:55;8.40;99.90
14985;DHT22;7588;62.368;25.902;2023-04-24T06:35:20;8.40;99.90
14985;DHT22;7588;62.368;25.902;2023-04-24T06:37:46;8.30;99.90
14985;DHT22;7588;62.368;25.902;2023-04-24T06:40:12;8.30;99.90
14985;DHT22;7588;62.368;25.902;2023-04-24T06:42:38;8.40;99.90
14985;DHT22;7588;62.368;25.902;2023-04-24T06:45:04;8.40;99.90
14985;DHT22;7588;62.368;25.902;2023-04-24T06:47:30;8.30;99.90
14985;DHT22;7588;62.368;25.902;2023-04-24T06:49:56;8.30;99.90
14985;DHT22;7588;62.368;25.902;2023-04-24T06:52:22;8.20;99.90
14985;DHT22;7588;62.368;25.902;2023-04-24T06:54:48;8.30;99.90
14985;DHT22;7588;62.368;25.902;2023-04-24T06:57:13;8.20;99.90
14985;DHT22;7588;62.368;25.902;2023-04-24T06:59:41;8.20;99.90
14985;DHT22;7588;62.368;25.902;2023-04-24T07:02:07;8.10;99.90
14985;DHT22;7588;62.368;25.902;2023-04-24T07:04:32;8.10;99.90
14985;DHT22;7588;62.368;25.902;2023-04-24T07:06:58;8.10;99.90
14985;DHT22;7588;62.368;25.902;2023-04-24T07:09:25;8.10;99.90
14985;DHT22;7588;62.368;25.902;2023-04-24T07:11:53;8.20;99.90
14985;DHT22;7588;62.368;25.902;2023-04-24T07:14:19;8.30;99.90
14985;DHT22;7588;62.368;25.902;2023-04-24T07:16:46;8.30;99.90
14985;DHT22;7588;62.368;25.902;2023-04-24T07:19:12;8.30;99.90
14985;DHT22;7588;62.368;25.902;2023-04-24T07:21:39;8.30;99.90
14985;DHT22;7588;62.368;25.902;2023-04-24T07:24:05;8.30;99.90
14985;DHT22;7588;62.368;25.902;2023-04-24T07:26:34;8.30;99.90
14985;DHT22;7588;62.368;25.902;2023-04-24T07:29:00;8.30;99.90
14985;DHT22;7588;62.368;25.902;2023-04-24T07:31:26;8.30;99.90
14985;DHT22;7588;62.368;25.902;2023-04-24T07:33:51;8.40;99.90
14985;DHT22;7588;62.368;25.902;2023-04-24T07:36:17;8.50;99.90
14985;DHT22;7588;62.368;25.902;2023-04-24T07:38:47;8.50;99.90
14985;DHT22;7588;62.368;25.902;2023-04-24T07:41:13;8.50;99.90
14985;DHT22;7588;62.368;25.902;2023-04-24T07:43:39;8.50;99.90
14985;DHT22;7588;62.368;25.902;2023-04-24T07:46:06;8.50;99.90
14985;DHT22;7588;62.368;25.902;2023-04-24T07:48:32;8.40;99.90
14985;DHT22;7588;62.368;25.902;2023-04-24T07:50:57;8.40;99.90
14985;DHT22;7588;62.368;25.902;2023-04-24T07:53:23;8.30;99.90
14985;DHT22;7588;62.368;25.902;2023-04-24T07:55:49;8.30;99.90
14985;DHT22;7588;62.368;25.902;2023-04-24T07:58:14;8.20;99.90
14985;DHT22;7588;62.368;25.902;2023-04-24T08:00:40;8.20;99.90
14985;DHT22;7588;62.368;25.902;2023-04-24T08:03:06;8.20;99.90
14985;DHT22;7588;62.368;25.902;2023-04-24T08:05:32;8.00;99.90
14985;DHT22;7588;62.368;25.902;2023-04-24T08:07:58;7.90;99.90
14985;DHT22;7588;62.368;25.902;2023-04-24T08:10:24;7.80;99.90
14985;DHT22;7588;62.368;25.902;2023-04-24T08:12:51;7.80;99.90
14985;DHT22;7588;62.368;25.902;2023-04-24T08:15:17;7.80;99.90
14985;DHT22;7588;62.368;25.902;2023-04-24T08:17:42;7.70;99.90
14985;DHT22;7588;62.368;25.902;2023-04-24T08:20:10;7.70;99.90
14985;DHT22;7588;62.368;25.902;2023-04-24T08:22:39;7.80;99.90
14985;DHT22;7588;62.368;25.902;2023-04-24T08:25:06;8.00;99.90
14985;DHT22;7588;62.368;25.902;2023-04-24T08:27:32;8.10;99.90
14985;DHT22;7588;62.368;25.902;2023-04-24T08:29:58;8.40;99.90
14985;DHT22;7588;62.368;25.902;2023-04-24T08:32:25;8.40;99.90
14985;DHT22;7588;62.368;25.902;2023-04-24T08:34:53;8.60;99.90
14985;DHT22;7588;62.368;25.902;2023-04-24T08:37:19;8.70;99.90
14985;DHT22;7588;62.368;25.902;2023-04-24T08:39:44;8.80;99.90
14985;DHT22;7588;62.368;25.902;2023-04-24T08:42:11;9.00;99.90
14985;DHT22;7588;62.368;25.902;2023-04-24T08:44:38;9.00;99.90
14985;DHT22;7588;62.368;25.902;2023-04-24T08:47:04;9.10;99.90
14985;DHT22;7588;62.368;25.902;2023-04-24T08:49:32;9.00;99.90
14985;DHT22;7588;62.368;25.902;2023-04-24T08:51:59;9.00;99.90
14985;DHT22;7588;62.368;25.902;2023-04-24T08:54:25;9.10;99.90
14985;DHT22;7588;62.368;25.902;2023-04-24T08:56:53;9.20;99.90
14985;DHT22;7588;62.368;25.902;2023-04-24T08:59:21;9.20;99.90
14985;DHT22;7588;62.368;25.902;2023-04-24T09:01:48;9.20;99.90
14985;DHT22;7588;62.368;25.902;2023-04-24T09:04:17;9.30;99.90
14985;DHT22;7588;62.368;25.902;2023-04-24T09:06:45;9.30;99.90
14985;DHT22;7588;62.368;25.902;2023-04-24T09:09:11;9.20;99.90
14985;DHT22;7588;62.368;25.902;2023-04-24T09:11:37;9.20;99.90
14985;DHT22;7588;62.368;25.902;2023-04-24T09:14:03;9.30;99.90
14985;DHT22;7588;62.368;25.902;2023-04-24T09:16:29;9.30;99.90
14985;DHT22;7588;62.368;25.902;2023-04-24T09:18:58;9.40;99.90
14985;DHT22;7588;62.368;25.902;2023-04-24T09:21:24;9.40;99.90
14985;DHT22;7588;62.368;25.902;2023-04-24T09:24:05;9.30;99.90
14985;DHT22;7588;62.368;25.902;2023-04-24T09:26:36;9.20;99.90
14985;DHT22;7588;62.368;25.902;2023-04-24T09:29:03;9.30;99.90
14985;DHT22;7588;62.368;25.902;2023-04-24T09:31:29;9.40;99.90
14985;DHT22;7588;62.368;25.902;2023-04-24T09:36:32;9.70;99.90
14985;DHT22;7588;62.368;25.902;2023-04-24T09:39:01;9.70;99.90
14985;DHT22;7588;62.368;25.902;2023-04-24T09:41:28;9.60;99.90
14985;DHT22;7588;62.368;25.902;2023-04-24T09:43:56;9.50;99.90
14985;DHT22;7588;62.368;25.902;2023-04-24T09:46:30;9.50;99.90
14985;DHT22;7588;62.368;25.902;2023-04-24T09:49:21;9.50;99.90
14985;DHT22;7588;62.368;25.902;2023-04-24T09:51:47;9.60;99.90
14985;DHT22;7588;62.368;25.902;2023-04-24T09:54:20;9.60;99.90
14985;DHT22;7588;62.368;25.902;2023-04-24T09:56:50;9.60;99.90
14985;DHT22;7588;62.368;25.902;2023-04-24T09:59:19;9.60;99.90
14985;DHT22;7588;62.368;25.902;2023-04-24T10:01:46;9.50;99.90
14985;DHT22;7588;62.368;25.902;2023-04-24T10:04:17;9.40;99.90
14985;DHT22;7588;62.368;25.902;2023-04-24T10:06:43;9.30;99.90
14985;DHT22;7588;62.368;25.902;2023-04-24T10:09:09;9.40;99.90
14985;DHT22;7588;62.368;25.902;2023-04-24T10:11:37;9.30;99.90
14985;DHT22;7588;62.368;25.902;2023-04-24T10:14:06;9.40;99.90
14985;DHT22;7588;62.368;25.902;2023-04-24T10:16:34;9.30;99.90
14985;DHT22;7588;62.368;25.902;2023-04-24T10:19:00;9.30;99.90
14985;DHT22;7588;62.368;25.902;2023-04-24T10:21:26;9.30;99.90
14985;DHT22;7588;62.368;25.902;2023-04-24T10:23:53;9.30;99.90
14985;DHT22;7588;62.368;25.902;2023-04-24T10:26:19;9.20;99.90
14985;DHT22;7588;62.368;25.902;2023-04-24T10:28:46;9.20;99.90
14985;DHT22;7588;62.368;25.902;2023-04-24T10:31:14;9.20;99.90
14985;DHT22;7588;62.368;25.902;2023-04-24T10:33:43;9.10;99.90
14985;DHT22;7588;62.368;25.902;2023-04-24T10:36:12;9.10;99.90
14985;DHT22;7588;62.368;25.902;2023-04-24T10:38:40;8.90;99.90
14985;DHT22;7588;62.368;25.902;2023-04-24T10:41:12;8.90;99.90
14985;DHT22;7588;62.368;25.902;2023-04-24T10:44:09;8.90;99.90
14985;DHT22;7588;62.368;25.902;2023-04-24T10:46:35;8.80;99.90
14985;DHT22;7588;62.368;25.902;2023-04-24T10:49:05;8.80;99.90
14985;DHT22;7588;62.368;25.902;2023-04-24T10:51:51;8.90;99.90
14985;DHT22;7588;62.368;25.902;2023-04-24T10:59:44;8.70;99.90
14985;DHT22;7588;62.368;25.902;2023-04-24T11:02:10;8.60;99.90
14985;DHT22;7588;62.368;25.902;2023-04-24T11:04:36;8.60;99.90
14985;DHT22;7588;62.368;25.902;2023-04-24T11:07:03;8.60;99.90
14985;DHT22;7588;62.368;25.902;2023-04-24T11:09:31;8.60;99.90
14985;DHT22;7588;62.368;25.902;2023-04-24T11:12:07;8.50;99.90
14985;DHT22;7588;62.368;25.902;2023-04-24T11:17:35;8.50;99.90
14985;DHT22;7588;62.368;25.902;2023-04-24T11:20:10;8.50;99.90
14985;DHT22;7588;62.368;25.902;2023-04-24T11:22:39;8.50;99.90
14985;DHT22;7588;62.368;25.902;2023-04-24T11:25:08;8.60;99.90
14985;DHT22;7588;62.368;25.902;2023-04-24T11:27:44;8.60;99.90
14985;DHT22;7588;62.368;25.902;2023-04-24T11:30:11;8.50;99.90
14985;DHT22;7588;62.368;25.902;2023-04-24T11:37:43;8.60;99.90
14985;DHT22;7588;62.368;25.902;2023-04-24T11:40:13;8.70;99.90
14985;DHT22;7588;62.368;25.902;2023-04-24T11:42:44;8.70;99.90
14985;DHT22;7588;62.368;25.902;2023-04-24T11:45:15;8.70;99.90
14985;DHT22;7588;62.368;25.902;2023-04-24T11:47:42;8.70;99.90
14985;DHT22;7588;62.368;25.902;2023-04-24T11:50:11;8.70;99.90
14985;DHT22;7588;62.368;25.902;2023-04-24T11:52:39;8.60;99.90
14985;DHT22;7588;62.368;25.902;2023-04-24T11:55:28;8.60;99.90
14985;DHT22;7588;62.368;25.902;2023-04-24T11:57:55;8.60;99.90
14985;DHT22;7588;62.368;25.902;2023-04-24T12:00:27;8.50;99.90
14985;DHT22;7588;62.368;25.902;2023-04-24T12:03:07;8.40;99.90
14985;DHT22;7588;62.368;25.902;2023-04-24T12:05:33;8.50;99.90
14985;DHT22;7588;62.368;25.902;2023-04-24T12:08:00;8.50;99.90
14985;DHT22;7588;62.368;25.902;2023-04-24T12:10:30;8.60;99.90
14985;DHT22;7588;62.368;25.902;2023-04-24T12:12:57;8.60;99.90
14985;DHT22;7588;62.368;25.902;2023-04-24T12:15:24;8.50;99.90
14985;DHT22;7588;62.368;25.902;2023-04-24T12:17:54;8.60;99.90
14985;DHT22;7588;62.368;25.902;2023-04-24T12:20:29;8.60;99.90
14985;DHT22;7588;62.368;25.902;2023-04-24T12:22:56;8.70;99.90
14985;DHT22;7588;62.368;25.902;2023-04-24T12:25:24;8.80;99.90
14985;DHT22;7588;62.368;25.902;2023-04-24T12:30:27;9.10;99.90
14985;DHT22;7588;62.368;25.902;2023-04-24T12:32:58;9.10;99.90
14985;DHT22;7588;62.368;25.902;2023-04-24T12:35:25;9.00;99.90
14985;DHT22;7588;62.368;25.902;2023-04-24T12:37:52;9.00;99.90
14985;DHT22;7588;62.368;25.902;2023-04-24T12:40:20;9.00;99.90
14985;DHT22;7588;62.368;25.902;2023-04-24T12:42:48;9.10;99.90
14985;DHT22;7588;62.368;25.902;2023-04-24T12:45:15;9.00;99.90
14985;DHT22;7588;62.368;25.902;2023-04-24T12:47:42;9.10;99.90
14985;DHT22;7588;62.368;25.902;2023-04-24T12:50:09;9.00;99.90
14985;DHT22;7588;62.368;25.902;2023-04-24T12:52:36;8.90;99.90
14985;DHT22;7588;62.368;25.902;2023-04-24T12:55:03;8.70;99.90
14985;DHT22;7588;62.368;25.902;2023-04-24T12:57:30;8.60;99.90
14985;DHT22;7588;62.368;25.902;2023-04-24T12:59:57;8.50;99.90
14985;DHT22;7588;62.368;25.902;2023-04-24T13:02:24;8.30;99.90
14985;DHT22;7588;62.368;25.902;2023-04-24T13:04:50;8.30;99.90
14985;DHT22;7588;62.368;25.902;2023-04-24T13:07:16;8.30;99.90
14985;DHT22;7588;62.368;25.902;2023-04-24T13:09:43;8.30;99.90
14985;DHT22;7588;62.368;25.902;2023-04-24T13:12:10;8.30;99.90
14985;DHT22;7588;62.368;25.902;2023-04-24T13:14:36;8.20;99.90
14985;DHT22;7588;62.368;25.902;2023-04-24T13:17:02;8.10;99.90
14985;DHT22;7588;62.368;25.902;2023-04-24T13:19:28;8.10;99.90
14985;DHT22;7588;62.368;25.902;2023-04-24T13:21:56;8.00;99.90
14985;DHT22;7588;62.368;25.902;2023-04-24T13:24:23;8.10;99.90
14985;DHT22;7588;62.368;25.902;2023-04-24T13:26:55;8.10;99.90
14985;DHT22;7588;62.368;25.902;2023-04-24T13:29:22;8.20;99.90
14985;DHT22;7588;62.368;25.902;2023-04-24T13:31:50;8.30;99.90
14985;DHT22;7588;62.368;25.902;2023-04-24T13:34:17;8.30;99.90
14985;DHT22;7588;62.368;25.902;2023-04-24T13:36:43;8.30;99.90
14985;DHT22;7588;62.368;25.902;2023-04-24T13:39:09;8.30;99.90
14985;DHT22;7588;62.368;25.902;2023-04-24T13:41:36;8.40;99.90
14985;DHT22;7588;62.368;25.902;2023-04-24T13:44:02;8.40;99.90
14985;DHT22;7588;62.368;25.902;2023-04-24T13:46:28;8.50;99.90
14985;DHT22;7588;62.368;25.902;2023-04-24T13:48:54;8.50;99.90
14985;DHT22;7588;62.368;25.902;2023-04-24T13:51:20;8.40;99.90
14985;DHT22;7588;62.368;25.902;2023-04-24T13:53:46;8.30;99.90
14985;DHT22;7588;62.368;25.902;2023-04-24T13:56:11;8.50;99.90
14985;DHT22;7588;62.368;25.902;2023-04-24T13:58:39;8.50;99.90
14985;DHT22;7588;62.368;25.902;2023-04-24T14:01:05;8.50;99.90
14985;DHT22;7588;62.368;25.902;2023-04-24T14:03:30;8.60;99.90
14985;DHT22;7588;62.368;25.902;2023-04-24T14:05:56;8.70;99.90
14985;DHT22;7588;62.368;25.902;2023-04-24T14:08:22;8.70;99.90
14985;DHT22;7588;62.368;25.902;2023-04-24T14:10:50;8.50;99.90
14985;DHT22;7588;62.368;25.902;2023-04-24T14:13:16;8.60;99.90
14985;DHT22;7588;62.368;25.902;2023-04-24T14:15:43;8.50;99.90
14985;DHT22;7588;62.368;25.902;2023-04-24T14:18:09;8.40;99.90
14985;DHT22;7588;62.368;25.902;2023-04-24T14:20:35;8.40;99.90
14985;DHT22;7588;62.368;25.902;2023-04-24T14:23:00;8.30;99.90
14985;DHT22;7588;62.368;25.902;2023-04-24T14:25:26;8.30;99.90
14985;DHT22;7588;62.368;25.902;2023-04-24T14:27:52;8.30;99.90
14985;DHT22;7588;62.368;25.902;2023-04-24T14:30:18;8.30;99.90
14985;DHT22;7588;62.368;25.902;2023-04-24T14:32:44;8.30;99.90
14985;DHT22;7588;62.368;25.902;2023-04-24T14:35:10;8.30;99.90
14985;DHT22;7588;62.368;25.902;2023-04-24T14:37:36;8.30;99.90
14985;DHT22;7588;62.368;25.902;2023-04-24T14:40:02;8.40;99.90
14985;DHT22;7588;62.368;25.902;2023-04-24T14:42:29;8.40;99.90
14985;DHT22;7588;62.368;25.902;2023-04-24T14:44:55;8.30;99.90
14985;DHT22;7588;62.368;25.902;2023-04-24T14:47:21;8.40;99.90
14985;DHT22;7588;62.368;25.902;2023-04-24T14:49:48;8.40;99.90
14985;DHT22;7588;62.368;25.902;2023-04-24T14:52:13;8.40;99.90
14985;DHT22;7588;62.368;25.902;2023-04-24T14:54:39;8.40;99.90
14985;DHT22;7588;62.368;25.902;2023-04-24T14:57:05;8.40;99.90
14985;DHT22;7588;62.368;25.902;2023-04-24T14:59:31;8.30;99.90
14985;DHT22;7588;62.368;25.902;2023-04-24T15:01:57;8.30;99.90
14985;DHT22;7588;62.368;25.902;2023-04-24T15:04:26;8.20;99.90
14985;DHT22;7588;62.368;25.902;2023-04-24T15:06:52;8.20;99.90
14985;DHT22;7588;62.368;25.902;2023-04-24T15:09:22;8.10;99.90
14985;DHT22;7588;62.368;25.902;2023-04-24T15:11:49;8.10;99.90
14985;DHT22;7588;62.368;25.902;2023-04-24T15:14:16;8.10;99.90
14985;DHT22;7588;62.368;25.902;2023-04-24T15:16:42;8.00;99.90
14985;DHT22;7588;62.368;25.902;2023-04-24T15:19:08;7.90;99.90
14985;DHT22;7588;62.368;25.902;2023-04-24T15:21:35;7.60;99.90
14985;DHT22;7588;62.368;25.902;2023-04-24T15:24:01;7.50;99.90
14985;DHT22;7588;62.368;25.902;2023-04-24T15:26:26;7.30;99.90
14985;DHT22;7588;62.368;25.902;2023-04-24T15:28:52;7.20;99.90
14985;DHT22;7588;62.368;25.902;2023-04-24T15:31:18;7.10;99.90
14985;DHT22;7588;62.368;25.902;2023-04-24T15:33:44;7.00;99.90
14985;DHT22;7588;62.368;25.902;2023-04-24T15:36:10;6.80;99.90
14985;DHT22;7588;62.368;25.902;2023-04-24T15:38:37;6.70;99.90
14985;DHT22;7588;62.368;25.902;2023-04-24T15:41:03;6.60;99.90
14985;DHT22;7588;62.368;25.902;2023-04-24T15:43:28;6.50;99.90
14985;DHT22;7588;62.368;25.902;2023-04-24T15:45:57;6.40;99.90
14985;DHT22;7588;62.368;25.902;2023-04-24T15:48:22;6.30;99.90
14985;DHT22;7588;62.368;25.902;2023-04-24T15:50:48;6.30;99.90
14985;DHT22;7588;62.368;25.902;2023-04-24T15:53:14;6.20;99.90
14985;DHT22;7588;62.368;25.902;2023-04-24T15:55:50;6.10;99.90
14985;DHT22;7588;62.368;25.902;2023-04-24T15:58:16;6.00;99.90
14985;DHT22;7588;62.368;25.902;2023-04-24T16:00:42;6.00;99.90